createdAt,value
2023-01-12T00:01:25.220Z,5.80
2023-01-12T00:16:26.227Z,5.80
2023-01-12T00:31:25.524Z,5.80
2023-01-12T00:46:24.567Z,6.18
2023-01-12T01:01:25.484Z,6.12
2023-01-12T01:16:25.531Z,6.35
2023-01-12T01:31:25.226Z,6.63
2023-01-12T01:46:25.374Z,6.62
2023-01-12T02:01:25.426Z,6.75
2023-01-12T02:16:26.249Z,6.88
2023-01-12T02:31:25.604Z,7.18
2023-01-12T02:46:34.684Z,7.22
2023-01-12T03:01:34.657Z,7.18
2023-01-12T03:16:25.071Z,7.07
2023-01-12T03:31:25.084Z,6.93
2023-01-12T03:46:24.885Z,6.60
2023-01-12T04:01:24.733Z,6.60
2023-01-12T04:16:25.282Z,6.60
2023-01-12T04:31:24.909Z,7.00
2023-01-12T04:46:25.013Z,7.10
2023-01-12T05:01:25.203Z,7.18
2023-01-12T05:16:25.143Z,7.28
2023-01-12T05:31:25.076Z,7.25
2023-01-12T05:46:26.102Z,7.37
2023-01-12T06:01:25.053Z,7.47
2023-01-12T06:16:25.413Z,7.60
2023-01-12T06:31:25.180Z,7.45
2023-01-12T06:46:25.308Z,7.38
2023-01-12T07:01:25.422Z,7.35
2023-01-12T07:16:25.574Z,7.32
2023-01-12T07:30:27.756Z,7.75
2023-01-12T07:45:33.776Z,7.52
2023-01-12T08:00:38.301Z,7.73
2023-01-12T08:15:23.749Z,7.80
2023-01-12T08:32:02.671Z,7.93
2023-01-12T08:45:24.004Z,8.17
2023-01-12T09:00:26.434Z,8.30
2023-01-12T09:15:29.475Z,8.33
2023-01-12T09:45:25.654Z,8.40
2023-01-12T10:00:32.559Z,8.43
2023-01-12T10:30:24.256Z,8.62
2023-01-12T10:45:23.868Z,8.70
2023-01-12T11:00:26.044Z,9.00
2023-01-12T11:15:24.136Z,8.90
2023-01-12T11:30:24.545Z,8.98
2023-01-12T11:45:24.350Z,9.10
2023-01-12T12:00:36.134Z,9.25
2023-01-12T12:15:24.320Z,9.40
2023-01-12T12:30:24.584Z,9.52
2023-01-12T12:45:33.831Z,9.62
2023-01-12T13:00:34.758Z,9.83
2023-01-12T13:15:23.892Z,9.90
2023-01-12T13:30:23.599Z,9.93
2023-01-12T13:45:23.680Z,9.95
2023-01-12T14:00:33.481Z,9.85
2023-01-12T15:00:33.006Z,9.83
2023-01-12T15:31:40.291Z,9.80
2023-01-12T15:46:25.403Z,9.75
2023-01-12T16:01:25.023Z,9.67
2023-01-12T16:16:24.800Z,9.67
2023-01-12T16:31:25.087Z,9.73
2023-01-12T16:46:24.925Z,9.57
2023-01-12T17:01:25.325Z,9.52
2023-01-12T17:16:25.173Z,9.55
2023-01-12T17:31:25.327Z,9.70
2023-01-12T17:46:34.317Z,9.67
2023-01-12T18:01:34.312Z,9.40
2023-01-12T18:16:24.247Z,9.50
2023-01-12T18:31:24.539Z,9.75
2023-01-12T18:49:11.125Z,9.50
2023-01-12T19:01:35.395Z,9.75
2023-01-12T19:16:25.546Z,9.73
2023-01-12T19:31:34.274Z,9.80
2023-01-12T19:46:34.205Z,9.67
2023-01-12T20:01:34.695Z,9.83
2023-01-12T20:16:24.572Z,9.60
2023-01-12T20:31:24.649Z,9.80
2023-01-12T20:46:24.653Z,9.80
2023-01-12T21:01:25.023Z,10.02
2023-01-12T21:16:24.946Z,10.05
2023-01-12T21:31:24.867Z,10.02
2023-01-12T21:46:24.717Z,10.05
2023-01-12T22:01:25.002Z,10.05
2023-01-12T22:16:25.567Z,9.98
2023-01-12T22:31:24.994Z,9.88
2023-01-12T22:46:25.028Z,9.80
2023-01-12T23:04:10.119Z,10.50
2023-01-12T23:16:24.779Z,9.75
2023-01-12T23:31:24.994Z,9.87
2023-01-12T23:46:25.657Z,9.70
